Time;durP1;ratioP1;P1;durP2;ratioP2;P2;SDS_P1;SDS_P2;PMS_P1;PMS_P2;Temp;Humidity;BMP_temperature;BMP_pressure;BME280_temperature;BME280_humidity;BME280_pressure;Samples;Min_cycle;Max_cycle;Signal;HPM_P1;HPM_P2
2021/04/19 00:01:06;;;;;;;7.30;5.18;;;9.30;99.90;;;;;;5081516;28;20039;-47
2021/04/19 00:03:31;;;;;;;6.90;4.80;;;9.30;99.90;;;;;;5115723;28;20110;-44
2021/04/19 00:05:58;;;;;;;6.50;4.63;;;9.30;99.90;;;;;;5115447;28;20516;-46
2021/04/19 00:08:24;;;;;;;7.00;5.13;;;9.20;99.90;;;;;;5115117;28;20049;-47
2021/04/19 00:10:50;;;;;;;9.27;5.18;;;9.20;99.90;;;;;;5113197;28;20037;-47
2021/04/19 00:13:16;;;;;;;9.05;5.40;;;9.20;99.90;;;;;;5097030;28;20035;-48
2021/04/19 00:15:42;;;;;;;7.65;4.93;;;9.20;99.90;;;;;;5097602;28;20423;-48
2021/04/19 00:18:09;;;;;;;6.43;4.60;;;9.20;99.90;;;;;;5094830;28;20060;-48
2021/04/19 00:20:34;;;;;;;8.75;5.60;;;9.20;99.90;;;;;;5096842;28;20039;-49
2021/04/19 00:23:00;;;;;;;8.27;4.93;;;9.20;99.90;;;;;;5078063;28;20043;-49
2021/04/19 00:25:26;;;;;;;7.68;4.85;;;9.30;99.90;;;;;;5096685;28;20028;-47
2021/04/19 00:27:52;;;;;;;7.15;5.38;;;9.20;99.90;;;;;;5094642;28;20048;-49
2021/04/19 00:30:19;;;;;;;6.63;4.15;;;9.20;99.90;;;;;;5096989;28;20379;-47
2021/04/19 00:32:45;;;;;;;9.38;5.43;;;9.20;99.90;;;;;;5096438;28;20036;-49
2021/04/19 00:35:12;;;;;;;7.10;4.75;;;9.20;99.90;;;;;;5077925;28;20153;-46
2021/04/19 00:37:38;;;;;;;7.53;5.65;;;9.30;99.90;;;;;;5077731;28;20048;-46
2021/04/19 00:40:15;;;;;;;10.15;5.78;;;9.30;99.90;;;;;;5077646;28;20437;-46
2021/04/19 00:42:42;;;;;;;8.02;5.57;;;9.20;99.90;;;;;;5077671;28;20051;-46
2021/04/19 00:45:10;;;;;;;7.05;5.03;;;9.20;99.90;;;;;;5096281;28;20475;-48
2021/04/19 00:47:37;;;;;;;6.43;4.55;;;9.20;99.90;;;;;;5096129;28;20044;-48
2021/04/19 00:50:13;;;;;;;6.28;4.75;;;9.20;99.90;;;;;;5095957;28;20071;-48
2021/04/19 00:52:39;;;;;;;8.65;5.35;;;9.30;99.90;;;;;;5077065;28;20044;-48
2021/04/19 00:55:10;;;;;;;7.43;5.07;;;9.30;99.90;;;;;;5096056;28;20432;-47
2021/04/19 00:57:36;;;;;;;7.70;5.03;;;9.20;99.90;;;;;;5027160;28;20047;-47
2021/04/19 01:00:05;;;;;;;11.10;6.00;;;9.10;99.90;;;;;;5096011;28;20032;-48
2021/04/19 01:02:32;;;;;;;7.28;5.32;;;9.00;99.90;;;;;;5073617;28;20049;-47
2021/04/19 01:04:58;;;;;;;8.07;5.70;;;8.90;99.90;;;;;;5056615;28;20045;-47
2021/04/19 01:07:24;;;;;;;7.65;5.50;;;9.00;99.90;;;;;;5073242;28;20052;-46
2021/04/19 01:09:49;;;;;;;9.57;6.20;;;9.10;99.90;;;;;;5056681;28;20526;-48
2021/04/19 01:12:16;;;;;;;7.30;5.55;;;9.20;99.90;;;;;;5073156;28;20044;-45
2021/04/19 01:14:42;;;;;;;8.00;5.25;;;9.10;99.90;;;;;;5073329;28;20036;-49
2021/04/19 01:17:09;;;;;;;8.25;5.70;;;9.10;99.90;;;;;;5073066;28;20037;-48
2021/04/19 01:19:34;;;;;;;9.43;5.70;;;9.20;99.90;;;;;;5073188;28;20039;-47
2021/04/19 01:22:00;;;;;;;7.88;5.65;;;9.30;99.90;;;;;;5073865;28;20037;-48
2021/04/19 01:24:26;;;;;;;8.05;4.93;;;9.30;99.90;;;;;;5073255;28;20457;-46
2021/04/19 01:26:52;;;;;;;8.75;5.75;;;9.20;99.90;;;;;;5056365;28;20159;-45
2021/04/19 01:29:18;;;;;;;7.75;4.95;;;9.30;99.90;;;;;;5072906;28;20048;-46
2021/04/19 01:31:43;;;;;;;6.65;5.10;;;9.30;99.90;;;;;;5056310;28;20142;-46
2021/04/19 01:34:09;;;;;;;9.93;5.13;;;9.30;99.90;;;;;;5090224;28;20119;-48
2021/04/19 01:36:35;;;;;;;7.10;4.90;;;9.30;99.90;;;;;;5095744;28;20035;-47
2021/04/19 01:39:01;;;;;;;7.18;4.78;;;9.40;99.90;;;;;;5076513;28;20385;-48
2021/04/19 01:41:29;;;;;;;7.10;4.75;;;9.40;99.90;;;;;;5095244;28;20028;-48
2021/04/19 01:43:55;;;;;;;7.80;4.90;;;9.40;99.90;;;;;;5095131;28;20433;-49
2021/04/19 01:46:21;;;;;;;7.15;5.03;;;9.40;99.90;;;;;;5095455;28;20031;-47
2021/04/19 01:48:47;;;;;;;9.05;6.13;;;9.40;99.90;;;;;;5094890;28;20040;-49
2021/04/19 01:51:13;;;;;;;6.82;4.57;;;9.50;99.90;;;;;;5095304;28;20039;-49
2021/04/19 01:53:39;;;;;;;7.05;4.75;;;9.50;99.90;;;;;;5095205;28;20035;-47
2021/04/19 01:56:05;;;;;;;7.15;5.28;;;9.40;99.90;;;;;;5095041;28;20568;-49
2021/04/19 01:58:32;;;;;;;14.85;9.00;;;9.40;99.90;;;;;;5076597;28;20040;-46
2021/04/19 02:00:59;;;;;;;15.68;9.45;;;9.30;99.90;;;;;;5094673;28;20395;-46
2021/04/19 02:04:13;;;;;;;7.55;5.50;;;8.90;99.90;;;;;;5094787;28;20081;-46
2021/04/19 02:06:45;;;;;;;7.53;4.72;;;8.60;99.90;;;;;;5072023;28;20084;-49
2021/04/19 02:09:21;;;;;;;15.52;9.35;;;8.40;99.90;;;;;;5071530;28;20063;-48
2021/04/19 02:12:05;;;;;;;16.63;9.50;;;8.10;99.90;;;;;;5072329;28;20037;-49
2021/04/19 02:14:56;;;;;;;8.73;6.32;;;8.20;99.90;;;;;;5072357;28;20066;-47
2021/04/19 02:17:49;;;;;;;6.65;5.38;;;8.50;99.90;;;;;;5072618;28;20039;-47
2021/04/19 02:20:23;;;;;;;7.03;4.55;;;8.70;99.90;;;;;;5071975;28;20121;-47
2021/04/19 02:22:58;;;;;;;8.32;5.18;;;8.90;99.90;;;;;;5072139;28;20047;-48
2021/04/19 02:25:45;;;;;;;9.07;4.93;;;9.00;99.90;;;;;;5071895;28;20086;-48
2021/04/19 02:28:19;;;;;;;7.43;4.68;;;9.10;99.90;;;;;;5071812;28;20036;-48
2021/04/19 02:30:50;;;;;;;6.50;4.65;;;9.20;99.90;;;;;;5072169;28;20036;-49
2021/04/19 02:33:19;;;;;;;6.78;5.22;;;9.30;99.90;;;;;;5072014;28;20067;-48
2021/04/19 02:35:46;;;;;;;6.57;4.88;;;9.40;99.90;;;;;;5054658;28;20048;-47
2021/04/19 02:38:29;;;;;;;19.88;11.98;;;9.40;99.90;;;;;;5071635;28;20036;-48
2021/04/19 02:40:59;;;;;;;12.85;7.00;;;9.30;99.90;;;;;;5071568;28;20042;-46
2021/04/19 02:43:25;;;;;;;9.32;5.70;;;9.10;99.90;;;;;;5072929;28;20040;-46
2021/04/19 02:45:52;;;;;;;8.60;5.38;;;8.80;99.90;;;;;;5070410;28;20029;-48
2021/04/19 02:48:22;;;;;;;7.55;5.22;;;8.60;99.90;;;;;;5073569;28;20032;-48
2021/04/19 02:50:49;;;;;;;8.48;4.95;;;8.50;99.90;;;;;;5073574;28;20123;-49
2021/04/19 02:53:16;;;;;;;8.90;6.00;;;8.60;99.90;;;;;;5073863;28;20467;-49
2021/04/19 02:55:43;;;;;;;10.48;6.75;;;8.70;99.90;;;;;;5073340;28;20357;-48
2021/04/19 02:58:10;;;;;;;13.52;7.18;;;8.90;99.90;;;;;;5052117;28;20037;-48
2021/04/19 03:00:48;;;;;;;14.50;7.18;;;9.10;99.90;;;;;;5053523;28;20068;-50
2021/04/19 03:03:24;;;;;;;9.00;5.18;;;9.20;99.90;;;;;;5051619;28;20500;-46
2021/04/19 03:05:51;;;;;;;12.55;7.80;;;9.30;99.90;;;;;;5053726;28;20116;-47
2021/04/19 03:08:18;;;;;;;8.20;6.13;;;9.10;99.90;;;;;;5093638;28;20036;-49
2021/04/19 03:10:58;;;;;;;6.13;4.60;;;9.00;99.90;;;;;;5093557;28;20059;-46
2021/04/19 03:13:27;;;;;;;5.25;4.63;;;8.60;99.90;;;;;;5093663;28;20024;-48
2021/04/19 03:15:57;;;;;;;8.07;4.85;;;8.30;99.90;;;;;;5093675;28;20031;-46
2021/04/19 03:18:24;;;;;;;7.43;5.05;;;8.10;99.90;;;;;;5093397;28;20070;-48
2021/04/19 03:21:06;;;;;;;6.82;4.95;;;8.00;99.90;;;;;;5093660;28;20433;-49
2021/04/19 03:23:36;;;;;;;6.85;4.53;;;8.00;99.90;;;;;;5093730;28;20028;-49
2021/04/19 03:26:03;;;;;;;7.30;4.50;;;7.60;99.90;;;;;;5093807;28;20490;-47
2021/04/19 03:28:32;;;;;;;9.32;5.90;;;7.20;99.90;;;;;;5093424;28;20039;-48
2021/04/19 03:30:59;;;;;;;9.65;6.30;;;7.30;99.90;;;;;;5091758;28;20127;-46
2021/04/19 03:33:25;;;;;;;7.53;5.60;;;7.50;99.90;;;;;;5093629;28;20036;-46
2021/04/19 03:35:52;;;;;;;7.13;5.18;;;7.90;99.90;;;;;;5093921;28;20027;-47
2021/04/19 03:38:20;;;;;;;8.93;5.15;;;8.20;99.90;;;;;;5093434;28;20036;-46
2021/04/19 03:40:48;;;;;;;6.65;4.78;;;;;;;;;;5093580;28;20052;-49
2021/04/19 03:43:17;;;;;;;8.00;4.75;;;8.70;99.90;;;;;;5094100;28;20024;-49
2021/04/19 03:45:44;;;;;;;9.40;4.82;;;8.80;99.90;;;;;;5093358;28;20034;-48
2021/04/19 03:48:18;;;;;;;13.02;7.68;;;8.90;99.90;;;;;;5093642;28;20491;-47
2021/04/19 03:50:47;;;;;;;9.00;6.18;;;8.70;99.90;;;;;;5093387;28;20061;-46
2021/04/19 03:53:15;;;;;;;16.48;6.97;;;8.60;99.90;;;;;;5093621;28;20028;-48
2021/04/19 03:55:44;;;;;;;13.25;7.90;;;8.50;99.90;;;;;;5093552;28;20032;-48
2021/04/19 03:58:12;;;;;;;11.27;6.93;;;8.70;99.90;;;;;;5093319;28;20028;-46
2021/04/19 04:00:41;;;;;;;10.55;5.88;;;8.80;99.90;;;;;;5093387;28;20039;-48
2021/04/19 04:03:08;;;;;;;8.20;5.88;;;8.90;99.90;;;;;;5093641;28;20024;-49
2021/04/19 04:05:34;;;;;;;8.35;4.82;;;8.90;99.90;;;;;;5094058;28;20110;-49
2021/04/19 04:08:02;;;;;;;7.82;5.00;;;8.70;99.90;;;;;;5093256;28;20390;-48
2021/04/19 04:10:28;;;;;;;6.72;4.85;;;8.80;99.90;;;;;;5092947;28;20560;-48
2021/04/19 04:12:55;;;;;;;7.18;4.70;;;8.70;99.90;;;;;;5093322;28;20032;-48
2021/04/19 04:15:20;;;;;;;9.43;5.97;;;8.60;99.90;;;;;;5074287;28;20044;-48
2021/04/19 04:17:46;;;;;;;7.50;4.88;;;8.90;99.90;;;;;;5092977;28;20462;-46
2021/04/19 04:20:14;;;;;;;10.82;6.28;;;9.00;99.90;;;;;;5093180;28;20062;-47
2021/04/19 04:22:40;;;;;;;26.55;16.15;;;9.10;99.90;;;;;;5057618;28;20066;-48
2021/04/19 04:25:07;;;;;;;12.43;6.75;;;9.30;99.90;;;;;;5093045;28;20421;-48
2021/04/19 04:27:33;;;;;;;10.27;5.93;;;9.40;99.90;;;;;;5073922;28;20078;-49
2021/04/19 04:29:59;;;;;;;11.20;6.13;;;9.50;99.90;;;;;;5093081;28;20032;-49
2021/04/19 04:32:25;;;;;;;6.38;5.13;;;9.60;99.90;;;;;;5095674;28;20375;-46
2021/04/19 04:34:50;;;;;;;13.40;6.97;;;9.70;99.90;;;;;;5096494;28;20530;-46
2021/04/19 04:37:16;;;;;;;9.43;5.40;;;9.70;99.90;;;;;;5096423;28;20016;-47
2021/04/19 04:39:42;;;;;;;5.25;3.75;;;9.80;99.90;;;;;;5096144;28;20028;-48
2021/04/19 04:42:13;;;;;;;8.25;5.55;;;9.90;99.90;;;;;;5096409;28;20036;-49
2021/04/19 04:44:42;;;;;;;10.48;5.43;;;10.00;99.90;;;;;;5096569;28;20036;-46
2021/04/19 04:47:22;;;;;;;8.27;4.75;;;10.00;99.90;;;;;;5096169;28;20429;-48
2021/04/19 04:50:06;;;;;;;6.13;4.20;;;10.10;99.90;;;;;;5096709;28;20079;-49
2021/04/19 04:52:47;;;;;;;6.95;4.72;;;10.20;99.90;;;;;;5077280;28;20110;-49
2021/04/19 04:55:15;;;;;;;5.43;4.05;;;10.30;99.90;;;;;;5096231;28;20103;-46
2021/04/19 04:57:44;;;;;;;6.35;4.28;;;10.30;99.90;;;;;;5095916;28;20131;-46
2021/04/19 05:00:13;;;;;;;5.57;4.07;;;10.30;99.90;;;;;;5096213;28;20020;-46
2021/04/19 05:02:40;;;;;;;5.45;4.00;;;10.30;99.90;;;;;;5076973;28;20036;-49
2021/04/19 05:05:06;;;;;;;6.57;4.57;;;10.40;99.90;;;;;;5077705;28;20036;-46
2021/04/19 05:07:33;;;;;;;7.50;4.95;;;10.40;99.90;;;;;;5093630;28;20052;-48
2021/04/19 05:09:59;;;;;;;11.27;6.80;;;10.30;99.90;;;;;;5096019;28;20364;-46
2021/04/19 05:12:25;;;;;;;20.20;10.88;;;10.20;99.90;;;;;;5095666;28;20077;-48
2021/04/19 05:14:59;;;;;;;23.40;14.15;;;10.20;99.90;;;;;;5094008;28;20040;-48
2021/04/19 05:17:26;;;;;;;20.70;10.80;;;10.30;99.90;;;;;;5095637;28;20028;-48
2021/04/19 05:19:52;;;;;;;11.70;7.10;;;10.40;99.90;;;;;;5093871;28;20127;-46
2021/04/19 05:22:18;;;;;;;9.38;5.53;;;10.50;99.90;;;;;;5076911;28;20169;-49
2021/04/19 05:24:44;;;;;;;9.02;5.68;;;10.60;99.90;;;;;;5095537;28;20052;-45
2021/04/19 05:27:12;;;;;;;11.88;6.18;;;10.80;99.90;;;;;;5095505;28;20028;-45
2021/04/19 05:29:39;;;;;;;9.30;7.25;;;10.90;99.90;;;;;;5076764;28;20098;-46
2021/04/19 05:32:07;;;;;;;9.57;6.88;;;10.90;99.90;;;;;;5095494;28;20103;-47
2021/04/19 05:34:33;;;;;;;7.10;5.05;;;11.00;99.90;;;;;;5059816;28;20032;-46
2021/04/19 05:37:02;;;;;;;6.60;4.65;;;11.30;99.90;;;;;;5076612;28;20120;-47
2021/04/19 05:39:28;;;;;;;7.15;4.47;;;;;;;;;;5093079;28;20124;-48
2021/04/19 05:41:55;;;;;;;6.97;4.47;;;11.70;99.90;;;;;;5094665;28;20028;-46
2021/04/19 05:44:21;;;;;;;7.45;4.30;;;11.80;99.90;;;;;;5095028;28;20077;-45
2021/04/19 05:46:47;;;;;;;7.78;4.57;;;11.90;99.90;;;;;;5095163;28;20036;-46
2021/04/19 05:49:13;;;;;;;6.25;4.93;;;12.10;99.90;;;;;;5095332;28;20032;-47
2021/04/19 05:51:42;;;;;;;9.07;4.95;;;12.10;99.90;;;;;;5095211;28;20355;-45
2021/04/19 05:54:09;;;;;;;7.80;5.03;;;;;;;;;;5095574;28;20035;-48
2021/04/19 05:56:35;;;;;;;6.78;4.93;;;12.40;99.90;;;;;;5094791;28;20035;-47
2021/04/19 05:59:47;;;;;;;7.40;4.93;;;12.40;99.90;;;;;;5095144;28;20013;-46
2021/04/19 06:02:18;;;;;;;8.75;4.88;;;12.50;99.90;;;;;;5093688;28;20032;-47
2021/04/19 06:04:48;;;;;;;7.78;4.68;;;;;;;;;;5094972;28;20032;-45
2021/04/19 06:07:25;;;;;;;6.93;4.50;;;12.60;99.90;;;;;;5094433;28;20048;-46
2021/04/19 06:10:04;;;;;;;6.97;4.32;;;12.40;99.90;;;;;;5094242;28;20038;-48
2021/04/19 06:12:33;;;;;;;6.85;4.28;;;12.40;99.90;;;;;;5094365;28;20471;-45
2021/04/19 06:15:11;;;;;;;9.00;4.65;;;12.30;99.90;;;;;;5094680;28;20378;-47
2021/04/19 06:17:42;;;;;;;14.93;4.63;;;12.20;99.90;;;;;;5076023;28;20119;-45
2021/04/19 06:20:08;;;;;;;9.98;4.70;;;12.20;99.90;;;;;;5094571;28;20029;-45
2021/04/19 06:22:35;;;;;;;7.28;4.13;;;12.20;99.90;;;;;;5094794;28;20412;-48
2021/04/19 06:25:00;;;;;;;6.57;4.53;;;12.20;99.90;;;;;;5094608;28;20024;-45
2021/04/19 06:27:27;;;;;;;6.53;4.47;;;11.90;99.90;;;;;;5094194;28;20032;-46
2021/04/19 06:29:53;;;;;;;5.85;4.07;;;11.90;99.90;;;;;;5094539;28;20035;-48
2021/04/19 06:32:23;;;;;;;7.32;4.70;;;11.80;99.90;;;;;;5094429;28;20024;-48
2021/04/19 06:34:50;;;;;;;7.05;4.57;;;11.80;99.90;;;;;;5094243;28;20028;-47
2021/04/19 06:37:18;;;;;;;7.38;5.15;;;11.90;99.90;;;;;;5094077;28;20406;-47
2021/04/19 06:39:44;;;;;;;9.05;5.72;;;11.90;99.90;;;;;;5094052;28;20036;-47
2021/04/19 06:42:11;;;;;;;9.55;4.75;;;12.10;99.90;;;;;;5094190;28;20028;-44
2021/04/19 06:44:37;;;;;;;6.95;5.20;;;11.90;99.90;;;;;;5092239;28;20417;-45
2021/04/19 06:47:03;;;;;;;8.52;5.35;;;12.00;99.90;;;;;;5075457;28;20490;-47
2021/04/19 06:49:29;;;;;;;9.27;4.88;;;12.20;99.90;;;;;;5075364;28;20036;-45
2021/04/19 06:51:56;;;;;;;8.20;5.22;;;12.30;99.90;;;;;;5093869;28;20423;-45
2021/04/19 06:54:26;;;;;;;8.88;4.55;;;12.30;99.90;;;;;;5093367;28;20024;-47
2021/04/19 06:56:54;;;;;;;8.10;4.88;;;12.20;99.90;;;;;;5093788;28;20025;-45
2021/04/19 06:59:23;;;;;;;8.85;6.15;;;12.10;99.90;;;;;;5093855;28;20386;-47
2021/04/19 07:01:53;;;;;;;8.10;5.45;;;12.30;99.90;;;;;;5093748;28;20035;-47
2021/04/19 07:04:27;;;;;;;7.00;5.13;;;12.40;99.90;;;;;;5093929;28;20028;-44
2021/04/19 07:06:54;;;;;;;8.43;5.50;;;12.70;99.90;;;;;;5093501;28;20055;-47
2021/04/19 07:09:27;;;;;;;8.65;5.05;;;12.70;99.90;;;;;;5093704;28;20043;-47
2021/04/19 07:11:57;;;;;;;;;;;12.50;99.90;;;;;;5093961;28;20526;-46
2021/04/19 07:14:24;;;;;;;8.32;5.82;;;12.80;99.90;;;;;;5093848;28;19968;-45
2021/04/19 07:16:51;;;;;;;9.27;5.32;;;13.00;99.90;;;;;;5108691;28;20044;-44
2021/04/19 07:19:17;;;;;;;8.23;4.65;;;13.20;99.90;;;;;;5093534;28;20032;-44
2021/04/19 07:21:43;;;;;;;5.75;4.20;;;13.60;99.90;;;;;;5057968;28;20471;-47
2021/04/19 07:24:09;;;;;;;8.63;4.85;;;13.10;99.90;;;;;;5093647;28;20032;-45
2021/04/19 07:26:35;;;;;;;9.38;5.88;;;13.00;99.90;;;;;;5091420;28;20043;-46
2021/04/19 07:29:01;;;;;;;9.13;5.22;;;13.40;99.90;;;;;;5074468;28;20044;-48
2021/04/19 07:31:28;;;;;;;7.80;5.18;;;13.40;99.90;;;;;;5091574;28;20033;-44
2021/04/19 07:33:54;;;;;;;7.90;4.47;;;13.40;99.90;;;;;;5074576;28;20036;-45
2021/04/19 07:36:28;;;;;;;7.05;4.90;;;13.30;99.90;;;;;;5093282;28;20032;-45
2021/04/19 07:38:59;;;;;;;8.00;4.80;;;13.70;99.90;;;;;;5093388;28;20105;-44
2021/04/19 07:41:43;;;;;;;10.85;5.32;;;;;;;;;;5093148;28;20032;-45
2021/04/19 07:44:09;;;;;;;6.75;4.38;;;14.30;99.90;;;;;;5093244;28;20032;-44
2021/04/19 07:46:35;;;;;;;6.93;4.40;;;14.10;99.90;;;;;;5093362;28;20024;-45
2021/04/19 07:49:07;;;;;;;6.38;4.60;;;14.00;99.90;;;;;;5091366;28;20086;-45
2021/04/19 07:51:39;;;;;;;8.02;5.20;;;14.50;99.90;;;;;;5075139;28;20054;-47
2021/04/19 07:54:11;;;;;;;;;;;14.40;99.90;;;;;;5093621;28;20104;-46
2021/04/19 07:56:42;;;;;;;7.50;4.73;;;14.50;99.90;;;;;;5093281;28;19966;-46
2021/04/19 07:59:25;;;;;;;7.88;5.15;;;14.50;99.90;;;;;;5093259;28;20654;-47
2021/04/19 08:02:01;;;;;;;7.10;4.43;;;14.20;99.90;;;;;;5093091;28;20024;-46
2021/04/19 08:04:28;;;;;;;10.98;5.68;;;14.10;99.90;;;;;;5093147;28;20020;-44
2021/04/19 08:06:55;;;;;;;7.10;4.78;;;14.60;99.90;;;;;;5076530;28;20046;-46
2021/04/19 08:09:31;;;;;;;6.10;4.40;;;14.50;99.90;;;;;;5078348;28;20040;-44
2021/04/19 08:12:07;;;;;;;5.32;3.95;;;14.50;99.90;;;;;;5096747;28;20036;-47
2021/04/19 08:14:32;;;;;;;5.72;4.00;;;14.40;99.90;;;;;;5061254;28;20028;-45
2021/04/19 08:17:11;;;;;;;8.60;4.75;;;14.60;99.90;;;;;;5096778;28;20024;-47
2021/04/19 08:19:39;;;;;;;9.25;4.22;;;14.60;99.90;;;;;;5096827;28;20031;-48
2021/04/19 08:22:29;;;;;;;15.43;4.57;;;14.60;99.90;;;;;;5096995;28;20034;-47
2021/04/19 08:25:17;;;;;;;6.47;4.60;;;14.70;99.90;;;;;;5096910;28;20475;-45
2021/04/19 08:27:45;;;;;;;5.50;3.78;;;14.50;99.90;;;;;;5096426;28;20036;-47
2021/04/19 08:30:16;;;;;;;5.38;3.70;;;15.00;99.90;;;;;;5077923;28;20028;-45
2021/04/19 08:32:46;;;;;;;7.30;4.72;;;15.10;99.90;;;;;;5096772;28;20050;-47
2021/04/19 08:35:13;;;;;;;8.60;4.30;;;15.50;99.90;;;;;;5096418;28;20139;-47
2021/04/19 08:37:40;;;;;;;5.57;3.80;;;15.70;99.90;;;;;;5060959;28;20086;-44
2021/04/19 08:40:08;;;;;;;3.95;2.90;;;15.10;99.90;;;;;;5097039;28;20020;-46
2021/04/19 08:42:36;;;;;;;5.20;3.63;;;15.00;99.90;;;;;;5077732;28;20089;-47
2021/04/19 08:45:03;;;;;;;4.63;3.40;;;15.10;99.90;;;;;;5096283;28;20089;-46
2021/04/19 08:47:30;;;;;;;5.93;4.15;;;14.80;99.90;;;;;;5096268;28;20039;-44
2021/04/19 08:49:58;;;;;;;7.55;4.38;;;;;;;;;;5096204;28;20020;-47
2021/04/19 08:52:24;;;;;;;5.93;3.85;;;15.80;99.90;;;;;;5096319;28;20024;-44
2021/04/19 08:54:50;;;;;;;4.35;3.25;;;15.40;99.90;;;;;;5096115;28;20471;-46
2021/04/19 08:57:16;;;;;;;4.95;3.38;;;15.50;99.90;;;;;;5096022;28;20424;-46
2021/04/19 08:59:43;;;;;;;4.05;3.10;;;15.60;99.90;;;;;;5077501;28;20032;-46
2021/04/19 09:02:11;;;;;;;5.35;3.35;;;15.90;99.90;;;;;;5096009;28;20028;-47
2021/04/19 09:04:37;;;;;;;4.78;2.83;;;15.80;99.90;;;;;;5096098;28;20038;-44
2021/04/19 09:07:03;;;;;;;3.95;2.70;;;15.90;99.90;;;;;;5095555;28;20048;-48
2021/04/19 09:09:31;;;;;;;2.92;2.17;;;15.60;99.90;;;;;;5095953;28;20509;-47
2021/04/19 09:12:22;;;;;;;4.25;3.13;;;15.70;99.90;;;;;;5095759;28;20027;-46
2021/04/19 09:14:48;;;;;;;4.35;3.17;;;15.60;99.90;;;;;;5073364;28;20032;-47
2021/04/19 09:17:29;;;;;;;5.53;3.05;;;15.00;99.90;;;;;;4990545;28;20597;-46
2021/04/19 09:19:57;;;;;;;6.22;3.15;;;15.00;99.90;;;;;;5007119;28;20036;-47
2021/04/19 09:22:24;;;;;;;5.15;3.35;;;15.10;99.90;;;;;;5039950;28;20062;-47
2021/04/19 09:25:16;;;;;;;4.57;3.30;;;15.10;99.90;;;;;;5040726;28;20119;-47
2021/04/19 09:27:57;;;;;;;5.57;3.10;;;15.00;99.90;;;;;;5073252;28;20376;-44
2021/04/19 09:30:26;;;;;;;72.43;30.60;;;14.90;99.90;;;;;;5074177;28;20032;-47
2021/04/19 09:33:07;;;;;;;16.13;7.75;;;14.80;99.90;;;;;;5073545;28;20296;-47
2021/04/19 09:35:48;;;;;;;7.93;4.25;;;15.00;99.90;;;;;;5073021;28;20028;-45
2021/04/19 09:38:42;;;;;;;84.32;36.60;;;15.20;99.90;;;;;;5073234;28;20076;-47
2021/04/19 09:41:10;;;;;;;144.02;54.10;;;15.00;99.90;;;;;;5072787;28;20383;-45
2021/04/19 09:43:42;;;;;;;37.00;18.63;;;14.90;99.90;;;;;;5072943;28;20024;-46
2021/04/19 09:46:15;;;;;;;21.65;10.65;;;15.00;99.90;;;;;;5073269;28;20036;-44
2021/04/19 09:48:53;;;;;;;10.55;5.65;;;14.80;99.90;;;;;;5072893;28;20032;-47
2021/04/19 09:51:26;;;;;;;7.07;4.47;;;15.10;99.90;;;;;;5079865;28;20425;-46
2021/04/19 09:54:14;;;;;;;165.90;60.35;;;15.30;99.90;;;;;;5095384;28;20024;-45
2021/04/19 09:56:41;;;;;;;163.60;57.53;;;15.00;99.90;;;;;;5095309;28;20470;-45
2021/04/19 09:59:09;;;;;;;99.65;35.05;;;14.90;99.90;;;;;;5093771;28;20028;-45
2021/04/19 10:01:36;;;;;;;32.92;13.35;;;14.50;99.90;;;;;;5096135;28;20107;-47
2021/04/19 10:04:03;;;;;;;15.60;7.05;;;14.50;99.90;;;;;;5095307;28;20020;-43
2021/04/19 10:06:50;;;;;;;26.23;12.02;;;14.50;99.90;;;;;;5076165;28;20047;-47
2021/04/19 10:09:21;;;;;;;39.95;16.30;;;14.60;99.90;;;;;;5094388;28;20065;-47
2021/04/19 10:11:50;;;;;;;17.60;8.35;;;15.00;99.90;;;;;;5092923;28;20475;-47
2021/04/19 10:14:18;;;;;;;8.10;5.53;;;14.80;99.90;;;;;;5094895;28;20502;-45
2021/04/19 10:16:49;;;;;;;6.72;4.65;;;14.50;99.90;;;;;;5094691;28;20081;-44
2021/04/19 10:19:29;;;;;;;10.25;5.10;;;14.50;99.90;;;;;;5076185;28;20425;-44
2021/04/19 10:22:17;;;;;;;9.02;5.20;;;14.30;99.90;;;;;;5094788;28;20461;-45
2021/04/19 10:25:08;;;;;;;14.82;5.00;;;14.60;99.90;;;;;;5094258;28;20102;-45
2021/04/19 10:27:35;;;;;;;9.98;6.18;;;14.90;99.90;;;;;;5021432;28;20515;-44
2021/04/19 10:30:13;;;;;;;6.38;4.05;;;14.70;99.90;;;;;;5071303;28;20499;-44
2021/04/19 10:32:40;;;;;;;5.82;3.60;;;14.70;99.90;;;;;;5038293;28;20032;-45
2021/04/19 10:35:39;;;;;;;8.35;4.55;;;14.70;99.90;;;;;;5071961;28;20035;-45
2021/04/19 10:38:05;;;;;;;5.15;3.83;;;15.10;99.90;;;;;;5072103;28;20044;-47
2021/04/19 10:40:31;;;;;;;6.68;4.20;;;15.50;99.90;;;;;;5072102;28;20087;-46
2021/04/19 10:43:11;;;;;;;9.80;4.68;;;15.90;99.90;;;;;;5038236;28;20039;-46
2021/04/19 10:45:39;;;;;;;5.90;4.13;;;15.90;99.90;;;;;;5072949;28;20543;-47
2021/04/19 10:48:19;;;;;;;8.85;5.35;;;15.90;99.90;;;;;;5071217;28;20037;-46
2021/04/19 10:50:45;;;;;;;5.43;3.90;;;16.00;99.90;;;;;;5071511;28;20051;-47
2021/04/19 10:53:11;;;;;;;9.60;4.63;;;16.60;99.90;;;;;;5021653;28;20040;-44
2021/04/19 10:55:37;;;;;;;5.75;3.75;;;17.00;99.90;;;;;;5071506;28;20124;-44
2021/04/19 10:58:03;;;;;;;6.10;3.90;;;17.00;99.90;;;;;;5066817;28;20037;-45
2021/04/19 11:00:29;;;;;;;10.35;5.43;;;;;;;;;;5064823;28;20392;-46
2021/04/19 11:02:55;;;;;;;5.90;3.95;;;17.30;99.90;;;;;;5055460;28;20423;-44
2021/04/19 11:05:21;;;;;;;5.68;4.10;;;17.00;99.90;;;;;;5052816;28;20051;-45
2021/04/19 11:07:47;;;;;;;11.40;4.35;;;17.20;99.90;;;;;;5071502;28;20048;-45
2021/04/19 11:10:26;;;;;;;57.63;21.10;;;17.30;99.90;;;;;;5093764;28;20475;-46
2021/04/19 11:13:08;;;;;;;5.72;4.00;;;17.20;99.90;;;;;;5091506;28;20039;-48
2021/04/19 11:15:42;;;;;;;5.72;3.78;;;17.30;99.90;;;;;;5091454;28;20047;-44
2021/04/19 11:18:17;;;;;;;5.25;3.53;;;17.20;99.90;;;;;;5075035;28;20082;-48
2021/04/19 11:20:43;;;;;;;5.57;3.08;;;17.20;99.90;;;;;;5091809;28;20043;-48
2021/04/19 11:23:29;;;;;;;3.90;2.88;;;16.70;99.90;;;;;;5093605;28;20027;-45
2021/04/19 11:26:00;;;;;;;7.00;3.45;;;17.10;99.90;;;;;;5093807;28;20028;-46
2021/04/19 11:28:30;;;;;;;9.60;4.63;;;16.90;99.90;;;;;;5093645;28;20486;-49
2021/04/19 11:30:57;;;;;;;7.47;2.85;;;16.90;99.80;;;;;;5093656;28;20273;-48
2021/04/19 11:33:25;;;;;;;3.78;2.65;;;17.10;99.90;;;;;;5094181;28;20138;-46
2021/04/19 11:35:59;;;;;;;5.57;2.70;;;17.30;98.10;;;;;;5074993;28;20036;-47
2021/04/19 11:38:25;;;;;;;3.25;2.05;;;17.20;98.70;;;;;;5093995;28;20084;-46
2021/04/19 11:40:57;;;;;;;4.88;2.70;;;17.40;98.30;;;;;;5095825;28;20024;-48
2021/04/19 11:43:31;;;;;;;4.57;2.85;;;;;;;;;;5098227;28;20348;-46
2021/04/19 11:46:09;;;;;;;3.97;2.60;;;17.80;97.40;;;;;;5095729;28;20429;-46
2021/04/19 11:48:41;;;;;;;3.17;2.17;;;17.50;99.30;;;;;;5097674;28;20127;-47
2021/04/19 11:51:08;;;;;;;4.20;2.55;;;17.40;98.20;;;;;;5097354;28;20471;-47
2021/04/19 11:53:36;;;;;;;3.08;2.38;;;17.20;98.30;;;;;;5097302;28;20145;-46
2021/04/19 11:56:03;;;;;;;3.72;2.40;;;17.20;99.00;;;;;;5097266;28;20055;-46
2021/04/19 11:58:29;;;;;;;4.10;2.60;;;17.10;97.80;;;;;;5045253;28;20378;-48
2021/04/19 12:00:56;;;;;;;4.03;2.78;;;17.40;97.70;;;;;;5097302;28;20119;-47
2021/04/19 12:03:22;;;;;;;4.00;2.90;;;17.70;98.20;;;;;;5097369;28;20032;-45
2021/04/19 12:05:49;;;;;;;4.97;2.90;;;17.70;96.80;;;;;;5097223;28;20474;-45
2021/04/19 12:08:14;;;;;;;3.42;2.40;;;18.10;96.50;;;;;;5096716;28;20056;-46
2021/04/19 12:10:41;;;;;;;4.45;2.65;;;18.40;98.40;;;;;;5097153;28;20528;-45
2021/04/19 12:13:14;;;;;;;4.78;2.70;;;18.20;96.90;;;;;;5097272;28;20433;-44
2021/04/19 12:15:45;;;;;;;6.05;3.83;;;18.00;97.00;;;;;;5097055;28;20077;-45
2021/04/19 12:18:11;;;;;;;6.75;3.63;;;17.60;99.90;;;;;;5078248;28;20036;-47
2021/04/19 12:20:38;;;;;;;5.70;3.63;;;17.10;98.30;;;;;;5097273;28;20115;-46
2021/04/19 12:23:04;;;;;;;4.65;3.47;;;16.70;98.20;;;;;;5095718;28;20061;-45
2021/04/19 12:25:31;;;;;;;5.68;3.63;;;;;;;;;;5095813;28;20028;-47
2021/04/19 12:27:58;;;;;;;6.45;3.72;;;16.60;99.90;;;;;;5096138;28;20032;-48
2021/04/19 12:30:24;;;;;;;6.03;4.18;;;16.40;99.90;;;;;;5096529;28;20499;-46
2021/04/19 12:32:50;;;;;;;6.88;3.88;;;16.30;99.90;;;;;;5094663;28;20414;-48
2021/04/19 12:35:16;;;;;;;5.60;3.97;;;16.00;99.90;;;;;;5096325;28;20028;-47
2021/04/19 12:37:42;;;;;;;4.80;3.50;;;15.90;99.10;;;;;;5094780;28;20037;-45
2021/04/19 12:40:08;;;;;;;5.32;3.38;;;16.10;99.90;;;;;;5096726;28;20023;-46
2021/04/19 12:42:34;;;;;;;5.20;3.78;;;16.00;99.90;;;;;;5060724;28;20394;-47
2021/04/19 12:45:00;;;;;;;5.35;3.50;;;16.10;99.40;;;;;;5096645;28;20024;-46
2021/04/19 12:47:26;;;;;;;5.72;3.72;;;15.90;99.90;;;;;;5096208;28;20020;-47
2021/04/19 12:49:51;;;;;;;28.40;12.48;;;15.90;99.90;;;;;;5096439;28;20134;-47
2021/04/19 12:52:17;;;;;;;11.43;6.72;;;15.90;99.90;;;;;;5095323;28;20078;-46
2021/04/19 12:54:43;;;;;;;6.18;3.97;;;15.90;99.50;;;;;;5077176;28;20040;-46
2021/04/19 12:57:09;;;;;;;4.50;3.40;;;15.60;99.90;;;;;;5096293;28;20086;-46
2021/04/19 12:59:35;;;;;;;6.05;4.05;;;15.70;99.90;;;;;;5094075;28;20414;-44
2021/04/19 13:02:00;;;;;;;13.43;6.97;;;15.60;99.60;;;;;;5094033;28;20421;-47
2021/04/19 13:04:26;;;;;;;45.17;20.92;;;15.50;99.70;;;;;;5095815;28;20046;-47